createdAt,value
2022-10-16T00:00:49.346Z,17.20
2022-10-16T00:06:12.720Z,15.98
2022-10-16T00:11:36.723Z,15.57
2022-10-16T00:16:58.746Z,17.92
2022-10-16T00:22:20.672Z,18.52
2022-10-16T00:27:42.502Z,18.10
2022-10-16T00:33:04.350Z,17.65
2022-10-16T00:38:26.260Z,18.73
2022-10-16T00:43:52.592Z,24.35
2022-10-16T00:49:17.819Z,21.80
2022-10-16T00:54:39.726Z,23.33
2022-10-16T01:00:04.744Z,21.50
2022-10-16T01:05:43.598Z,22.55
2022-10-16T01:11:31.691Z,20.45
2022-10-16T01:17:01.284Z,20.13
2022-10-16T01:22:32.050Z,22.08
2022-10-16T01:27:53.974Z,24.95
2022-10-16T01:33:23.890Z,22.55
2022-10-16T01:38:49.855Z,19.10
2022-10-16T01:44:18.002Z,19.33
2022-10-16T01:49:41.911Z,20.88
2022-10-16T01:55:07.374Z,22.58
2022-10-16T02:00:31.392Z,24.95
2022-10-16T02:05:56.364Z,25.30
2022-10-16T02:11:18.245Z,22.35
2022-10-16T02:16:43.170Z,21.25
2022-10-16T02:22:09.020Z,21.83
2022-10-16T02:27:35.184Z,25.90
2022-10-16T02:33:00.275Z,25.20
2022-10-16T02:38:23.859Z,22.45
2022-10-16T02:43:45.704Z,26.13
2022-10-16T02:49:07.569Z,25.38
2022-10-16T02:54:29.417Z,22.65
2022-10-16T02:59:51.271Z,25.10
2022-10-16T03:05:13.318Z,25.33
2022-10-16T03:10:35.230Z,23.90
2022-10-16T03:15:57.118Z,22.55
2022-10-16T03:21:18.975Z,25.60
2022-10-16T03:26:40.918Z,23.00
2022-10-16T03:32:02.807Z,20.88
2022-10-16T03:37:25.584Z,20.08
2022-10-16T03:42:47.724Z,23.73
2022-10-16T03:48:11.885Z,24.65
2022-10-16T03:53:33.785Z,25.80
2022-10-16T03:58:55.676Z,21.40
2022-10-16T04:04:17.673Z,21.70
2022-10-16T04:09:39.529Z,23.17
2022-10-16T04:15:01.394Z,22.00
2022-10-16T04:20:23.329Z,22.67
2022-10-16T04:25:45.220Z,20.73
2022-10-16T04:31:07.788Z,22.15
2022-10-16T04:36:29.637Z,19.58
2022-10-16T04:41:51.481Z,20.77
2022-10-16T04:47:14.064Z,22.63
2022-10-16T04:57:57.841Z,23.83
2022-10-16T05:03:19.875Z,21.73
2022-10-16T05:08:41.820Z,18.83
2022-10-16T05:14:03.947Z,20.38
2022-10-16T05:19:27.947Z,20.88
2022-10-16T05:24:50.321Z,18.98
2022-10-16T05:30:12.631Z,20.02
2022-10-16T05:35:35.118Z,18.63
2022-10-16T05:40:56.967Z,20.35
2022-10-16T05:46:19.449Z,19.00
2022-10-16T05:51:41.302Z,19.90
2022-10-16T05:57:03.161Z,18.13
2022-10-16T06:02:25.006Z,17.92
2022-10-16T06:07:46.838Z,19.02
2022-10-16T06:13:08.955Z,16.98
2022-10-16T06:18:31.060Z,16.02
2022-10-16T06:23:53.318Z,16.70
2022-10-16T06:29:15.264Z,17.02
2022-10-16T06:34:38.480Z,15.20
2022-10-16T06:40:02.595Z,13.95
2022-10-16T06:45:24.566Z,12.07
2022-10-16T06:56:27.010Z,12.38
2022-10-16T07:01:49.291Z,15.40
2022-10-16T07:07:11.219Z,13.50
2022-10-16T07:12:33.324Z,15.63
2022-10-16T07:17:55.373Z,14.57
2022-10-16T07:23:17.204Z,13.65
2022-10-16T07:28:39.414Z,14.20
2022-10-16T07:34:01.691Z,14.10
2022-10-16T07:39:23.524Z,15.50
2022-10-16T07:44:45.421Z,17.27
2022-10-16T07:50:07.602Z,14.77
2022-10-16T07:55:29.575Z,19.00
2022-10-16T08:00:51.392Z,14.23
2022-10-16T08:06:13.476Z,14.05
2022-10-16T08:11:35.534Z,11.73
2022-10-16T08:16:57.442Z,15.68
2022-10-16T08:22:19.279Z,11.57
2022-10-16T08:27:41.133Z,11.02
2022-10-16T08:33:03.525Z,12.40
2022-10-16T08:38:25.538Z,11.23
2022-10-16T08:44:11.834Z,12.40
2022-10-16T08:49:33.770Z,12.82
2022-10-16T08:54:56.720Z,12.50
2022-10-16T09:00:19.336Z,12.52
2022-10-16T09:05:47.184Z,11.88
2022-10-16T09:11:39.672Z,11.52
2022-10-16T09:17:17.324Z,10.52
2022-10-16T09:22:40.126Z,10.18
2022-10-16T09:28:02.074Z,11.20
2022-10-16T09:33:29.811Z,11.63
2022-10-16T09:39:04.316Z,10.00
2022-10-16T09:44:30.131Z,11.60
2022-10-16T09:50:04.880Z,12.38
2022-10-16T09:55:26.714Z,11.35
2022-10-16T10:00:55.866Z,13.52
2022-10-16T10:06:23.499Z,11.23
2022-10-16T10:11:51.687Z,11.80
2022-10-16T10:17:20.355Z,11.38
2022-10-16T10:22:44.407Z,11.45
2022-10-16T10:28:09.243Z,11.35
2022-10-16T10:33:36.834Z,10.88
2022-10-16T10:44:55.928Z,12.07
2022-10-16T10:50:29.728Z,9.82
2022-10-16T10:56:07.305Z,10.10
2022-10-16T11:01:50.942Z,9.70
2022-10-16T11:07:35.884Z,10.05
2022-10-16T11:13:33.713Z,11.32
2022-10-16T11:18:58.538Z,12.55
2022-10-16T11:24:24.740Z,9.98
2022-10-16T11:30:00.243Z,11.75
2022-10-16T11:35:45.298Z,8.23
2022-10-16T11:41:28.301Z,8.68
2022-10-16T11:47:24.406Z,9.10
2022-10-16T11:53:19.716Z,10.23
2022-10-16T11:58:47.447Z,10.82
2022-10-16T12:04:36.340Z,10.25
2022-10-16T12:09:58.182Z,9.43
2022-10-16T12:15:47.362Z,13.38
2022-10-16T12:21:12.959Z,8.77
2022-10-16T12:26:40.145Z,11.50
2022-10-16T12:32:05.186Z,8.75
2022-10-16T12:37:31.921Z,9.60
2022-10-16T12:42:53.856Z,11.73
2022-10-16T12:48:26.479Z,11.68
2022-10-16T12:54:14.590Z,11.82
2022-10-16T12:59:49.370Z,9.30
2022-10-16T13:05:18.097Z,11.27
2022-10-16T13:11:15.893Z,11.10
2022-10-16T13:16:53.510Z,13.25
2022-10-16T13:22:30.393Z,10.23
2022-10-16T13:27:58.020Z,12.18
2022-10-16T13:33:41.690Z,11.75
2022-10-16T13:39:30.860Z,11.55
2022-10-16T13:44:55.450Z,13.02
2022-10-16T13:50:19.535Z,11.98
2022-10-16T13:55:41.722Z,10.57
2022-10-16T14:01:28.718Z,8.95
2022-10-16T14:06:54.276Z,11.23
2022-10-16T14:12:16.913Z,11.43
2022-10-16T14:17:46.608Z,10.88
2022-10-16T14:23:30.405Z,10.45
2022-10-16T14:29:11.047Z,10.25
2022-10-16T14:34:35.716Z,9.65
2022-10-16T14:39:58.441Z,11.02
2022-10-16T14:45:27.163Z,8.90
2022-10-16T14:50:49.273Z,10.85
2022-10-16T14:56:22.135Z,8.75
2022-10-16T15:01:45.194Z,8.93
2022-10-16T15:07:08.976Z,10.07
2022-10-16T15:12:30.825Z,10.15
2022-10-16T15:17:56.967Z,11.85
2022-10-16T15:23:21.498Z,13.80
2022-10-16T15:28:43.380Z,10.10
2022-10-16T15:34:05.771Z,13.13
2022-10-16T15:39:27.631Z,12.20
2022-10-16T15:44:51.037Z,11.23
2022-10-16T15:50:14.696Z,10.45
2022-10-16T15:55:36.568Z,18.45
2022-10-16T16:01:00.347Z,11.23
2022-10-16T16:06:23.361Z,12.43
2022-10-16T16:11:45.195Z,11.80
2022-10-16T16:17:07.056Z,14.50
2022-10-16T16:22:29.435Z,16.13
2022-10-16T16:27:51.549Z,13.23
2022-10-16T16:33:13.453Z,13.30
2022-10-16T16:38:35.345Z,12.60
2022-10-16T16:44:06.251Z,14.88
2022-10-16T16:49:28.115Z,13.07
2022-10-16T16:54:49.939Z,14.88
2022-10-16T17:00:12.463Z,15.43
2022-10-16T17:05:34.297Z,14.60
2022-10-16T17:10:56.693Z,14.45
2022-10-16T17:16:18.845Z,12.93
2022-10-16T17:21:41.730Z,15.70
2022-10-16T17:27:03.626Z,17.60
2022-10-16T17:32:25.703Z,14.68
2022-10-16T17:37:47.776Z,16.75
2022-10-16T17:43:09.689Z,15.57
2022-10-16T17:48:31.568Z,17.17
2022-10-16T17:53:56.172Z,17.33
2022-10-16T17:59:18.063Z,17.95
2022-10-16T18:04:40.370Z,24.77
2022-10-16T18:10:11.073Z,17.98
2022-10-16T18:15:33.896Z,18.63
2022-10-16T18:21:03.590Z,19.05
2022-10-16T18:26:26.618Z,17.60
2022-10-16T18:31:48.846Z,16.50
2022-10-16T18:37:10.716Z,18.42
2022-10-16T18:42:32.626Z,17.98
2022-10-16T18:47:54.511Z,17.40
2022-10-16T18:53:16.531Z,15.75
2022-10-16T18:58:38.687Z,18.25
2022-10-16T19:04:03.823Z,17.65
2022-10-16T19:09:25.756Z,19.90
2022-10-16T19:14:50.695Z,18.83
2022-10-16T19:20:12.584Z,21.00
2022-10-16T19:25:38.118Z,19.13
2022-10-16T19:31:05.245Z,17.97
2022-10-16T19:36:32.238Z,22.23
2022-10-16T19:41:54.286Z,18.48
2022-10-16T19:47:18.589Z,18.33
2022-10-16T19:58:04.444Z,19.00
2022-10-16T20:03:26.337Z,19.05
2022-10-16T20:08:50.260Z,18.95
2022-10-16T20:14:12.197Z,22.45
2022-10-16T20:19:34.235Z,19.35
2022-10-16T20:24:56.108Z,22.45
2022-10-16T20:30:18.075Z,18.45
2022-10-16T20:35:45.621Z,18.83
2022-10-16T20:41:08.130Z,23.00
2022-10-16T20:46:30.100Z,18.90
2022-10-16T20:51:51.983Z,18.05
2022-10-16T20:57:13.962Z,19.15
2022-10-16T21:02:35.988Z,20.35
2022-10-16T21:07:58.491Z,22.80
2022-10-16T21:13:20.576Z,17.60
2022-10-16T21:18:44.565Z,18.00
2022-10-16T21:24:10.810Z,18.08
2022-10-16T21:29:35.561Z,21.40
2022-10-16T21:34:57.462Z,19.60
2022-10-16T21:40:19.369Z,19.67
2022-10-16T21:45:41.278Z,18.50
2022-10-16T21:51:03.275Z,20.55
2022-10-16T21:56:25.204Z,24.98
2022-10-16T22:01:47.169Z,20.48
2022-10-16T22:07:09.120Z,21.30
2022-10-16T22:12:31.037Z,20.50
2022-10-16T22:17:52.955Z,17.63
2022-10-16T22:23:15.565Z,19.10
2022-10-16T22:28:39.163Z,18.63
2022-10-16T22:34:03.248Z,20.05
2022-10-16T22:39:25.079Z,23.05
2022-10-16T22:44:46.896Z,20.17
2022-10-16T22:50:08.833Z,25.80
2022-10-16T22:55:31.229Z,23.90
2022-10-16T23:00:53.584Z,23.13
2022-10-16T23:06:15.990Z,21.25
2022-10-16T23:11:37.887Z,21.33
2022-10-16T23:16:59.710Z,21.88
2022-10-16T23:22:21.557Z,21.05
2022-10-16T23:27:43.499Z,21.63
2022-10-16T23:33:05.486Z,23.67
2022-10-16T23:38:27.369Z,22.27
2022-10-16T23:43:49.317Z,22.02
2022-10-16T23:49:11.207Z,26.58
2022-10-16T23:54:33.106Z,20.17
2022-10-16T23:59:54.961Z,21.80
